createdAt,value
2018-09-27T00:02:15.498Z,17.97
2018-09-27T00:04:44.792Z,18.39
2018-09-27T00:07:14.101Z,18.34
2018-09-27T00:09:43.701Z,18.17
2018-09-27T00:12:13.067Z,18.31
2018-09-27T00:14:42.396Z,18.40
2018-09-27T00:17:11.707Z,18.38
2018-09-27T00:19:41.076Z,18.36
2018-09-27T00:22:10.638Z,18.08
2018-09-27T00:24:40.118Z,18.26
2018-09-27T00:27:09.419Z,18.16
2018-09-27T00:29:38.683Z,18.37
2018-09-27T00:32:08.258Z,18.44
2018-09-27T00:34:37.607Z,18.37
2018-09-27T00:37:06.924Z,18.44
2018-09-27T00:39:36.340Z,18.56
2018-09-27T00:42:05.649Z,18.45
2018-09-27T00:44:34.935Z,18.38
2018-09-27T00:47:04.700Z,18.43
2018-09-27T00:49:34.040Z,18.46
2018-09-27T00:52:03.441Z,18.42
2018-09-27T00:54:33.759Z,18.45
2018-09-27T00:57:03.800Z,18.17
2018-09-27T00:59:33.213Z,18.34
2018-09-27T01:02:02.643Z,18.45
2018-09-27T01:04:31.985Z,18.35
2018-09-27T01:07:01.328Z,18.26
2018-09-27T01:09:30.697Z,18.23
2018-09-27T01:12:00.042Z,18.33
2018-09-27T01:14:31.085Z,18.34
2018-09-27T01:17:01.162Z,18.64
2018-09-27T01:19:30.622Z,18.55
2018-09-27T01:22:00.033Z,18.56
2018-09-27T01:24:29.381Z,18.31
2018-09-27T01:26:59.383Z,18.47
2018-09-27T01:29:28.681Z,18.50
2018-09-27T01:31:59.431Z,18.31
2018-09-27T01:34:28.878Z,18.51
2018-09-27T01:36:58.199Z,18.67
2018-09-27T01:39:27.655Z,18.66
2018-09-27T01:41:57.071Z,18.65
2018-09-27T01:44:26.328Z,18.80
2018-09-27T01:46:55.956Z,18.85
2018-09-27T01:49:25.278Z,18.74
2018-09-27T01:51:54.626Z,18.69
2018-09-27T01:54:24.016Z,18.60
2018-09-27T01:56:53.381Z,18.61
2018-09-27T01:59:22.681Z,18.64
2018-09-27T02:01:52.117Z,18.61
2018-09-27T02:04:21.439Z,18.71
2018-09-27T02:06:50.791Z,18.67
2018-09-27T02:09:20.158Z,18.79
2018-09-27T02:11:49.484Z,18.65
2018-09-27T02:14:18.813Z,18.60
2018-09-27T02:16:48.300Z,18.66
2018-09-27T02:19:17.766Z,18.52
2018-09-27T02:21:47.408Z,18.51
2018-09-27T02:24:17.627Z,18.64
2018-09-27T02:26:46.888Z,18.61
2018-09-27T02:29:16.216Z,18.51
2018-09-27T02:31:45.600Z,18.46
2018-09-27T02:34:14.893Z,18.55
2018-09-27T02:36:44.205Z,18.70
2018-09-27T02:39:13.514Z,18.55
2018-09-27T02:41:42.820Z,18.38
2018-09-27T02:44:12.158Z,18.49
2018-09-27T02:46:41.924Z,18.32
2018-09-27T02:49:11.281Z,18.43
2018-09-27T02:51:40.613Z,18.62
2018-09-27T02:54:09.960Z,18.45
2018-09-27T02:56:39.270Z,18.39
2018-09-27T02:59:08.646Z,18.38
2018-09-27T03:01:38.003Z,18.66
2018-09-27T03:04:07.672Z,18.61
2018-09-27T03:06:36.973Z,18.43
2018-09-27T03:09:10.865Z,18.51
2018-09-27T03:11:40.199Z,18.33
2018-09-27T03:14:09.543Z,18.07
2018-09-27T03:16:39.008Z,18.20
2018-09-27T03:19:08.361Z,18.34
2018-09-27T03:21:37.703Z,18.30
2018-09-27T03:24:07.067Z,18.17
2018-09-27T03:26:36.326Z,18.08
2018-09-27T03:29:05.642Z,18.18
2018-09-27T03:31:35.333Z,18.23
2018-09-27T03:34:04.727Z,18.21
2018-09-27T03:36:34.213Z,18.24
2018-09-27T03:39:03.661Z,18.28
2018-09-27T03:41:33.007Z,18.45
2018-09-27T03:44:02.301Z,18.21
2018-09-27T03:46:31.650Z,18.15
2018-09-27T03:49:00.970Z,18.18
2018-09-27T03:51:30.336Z,18.16
2018-09-27T03:53:59.785Z,18.08
2018-09-27T03:56:30.930Z,18.22
2018-09-27T03:59:02.507Z,18.22
2018-09-27T04:01:31.946Z,18.42
2018-09-27T04:04:02.107Z,18.47
2018-09-27T04:06:31.518Z,18.45
2018-09-27T04:11:29.369Z,18.22
2018-09-27T04:13:58.840Z,18.31
2018-09-27T04:16:28.177Z,18.51
2018-09-27T04:18:57.526Z,18.58
2018-09-27T04:21:26.893Z,18.54
2018-09-27T04:23:56.206Z,18.47
2018-09-27T04:26:25.566Z,18.26
2018-09-27T04:28:54.944Z,18.15
2018-09-27T04:31:24.319Z,18.18
2018-09-27T04:33:53.694Z,18.08
2018-09-27T04:36:23.041Z,17.99
2018-09-27T04:38:52.494Z,17.88
2018-09-27T04:41:21.878Z,17.93
2018-09-27T04:43:51.228Z,18.16
2018-09-27T04:46:20.533Z,18.03
2018-09-27T04:48:49.857Z,18.00
2018-09-27T04:51:19.239Z,17.95
2018-09-27T04:53:48.568Z,17.84
2018-09-27T04:56:17.977Z,17.82
2018-09-27T04:58:47.416Z,17.63
2018-09-27T05:01:16.775Z,17.67
2018-09-27T05:03:46.138Z,17.66
2018-09-27T05:06:15.509Z,17.85
2018-09-27T05:08:44.847Z,17.73
2018-09-27T05:11:14.183Z,17.71
2018-09-27T05:13:43.748Z,17.67
2018-09-27T05:16:13.103Z,17.59
2018-09-27T05:18:42.533Z,17.68
2018-09-27T05:21:12.260Z,17.77
2018-09-27T05:23:41.607Z,17.50
2018-09-27T05:26:11.055Z,17.40
2018-09-27T05:28:40.479Z,17.42
2018-09-27T05:31:09.949Z,17.51
2018-09-27T05:33:39.382Z,17.53
2018-09-27T05:36:08.653Z,17.72
2018-09-27T05:38:38.111Z,17.55
2018-09-27T05:41:07.468Z,17.76
2018-09-27T05:43:37.279Z,17.79
2018-09-27T05:46:06.820Z,18.11
2018-09-27T05:48:36.148Z,18.26
2018-09-27T05:51:05.654Z,18.59
2018-09-27T05:53:36.674Z,18.56
2018-09-27T05:56:06.121Z,18.63
2018-09-27T05:58:35.376Z,18.75
2018-09-27T06:01:04.720Z,19.17
2018-09-27T06:03:34.785Z,19.30
2018-09-27T06:06:04.136Z,19.86
2018-09-27T06:08:33.463Z,19.90
2018-09-27T06:11:03.310Z,20.05
2018-09-27T06:13:32.610Z,20.44
2018-09-27T06:16:01.970Z,20.17
2018-09-27T06:18:31.391Z,20.39
2018-09-27T06:21:00.947Z,20.94
2018-09-27T06:23:30.471Z,21.38
2018-09-27T06:26:00.049Z,21.62
2018-09-27T06:28:29.407Z,21.62
2018-09-27T06:30:58.783Z,21.92
2018-09-27T06:33:28.139Z,21.96
2018-09-27T06:35:57.508Z,22.29
2018-09-27T06:38:26.875Z,22.43
2018-09-27T06:40:56.307Z,23.05
2018-09-27T06:43:25.687Z,23.29
2018-09-27T06:45:55.010Z,23.12
2018-09-27T06:48:24.479Z,21.74
2018-09-27T06:50:54.071Z,21.32
2018-09-27T06:53:23.471Z,21.00
2018-09-27T06:55:52.984Z,20.78
2018-09-27T06:58:22.384Z,20.38
2018-09-27T07:00:51.768Z,20.17
2018-09-27T07:03:21.317Z,19.71
2018-09-27T07:05:50.722Z,19.86
2018-09-27T07:08:20.075Z,20.01
2018-09-27T07:10:49.646Z,19.51
2018-09-27T07:13:18.994Z,19.02
2018-09-27T07:15:48.760Z,18.73
2018-09-27T07:18:18.334Z,18.64
2018-09-27T07:20:47.839Z,18.56
2018-09-27T07:23:17.242Z,18.76
2018-09-27T07:25:50.573Z,19.11
2018-09-27T07:28:19.984Z,18.74
2018-09-27T07:30:50.646Z,19.00
2018-09-27T07:33:20.131Z,18.36
2018-09-27T07:35:50.431Z,18.60
2018-09-27T07:38:19.857Z,19.09
2018-09-27T07:40:49.456Z,19.03
2018-09-27T07:43:18.998Z,18.95
2018-09-27T07:45:48.498Z,18.82
2018-09-27T07:48:18.398Z,18.39
2018-09-27T07:50:48.026Z,18.63
2018-09-27T07:53:17.476Z,18.95
2018-09-27T07:55:46.883Z,19.27
2018-09-27T07:58:16.311Z,19.80
2018-09-27T08:00:45.852Z,20.19
2018-09-27T08:03:15.393Z,21.54
2018-09-27T08:05:44.824Z,22.94
2018-09-27T08:08:14.335Z,24.22
2018-09-27T08:10:44.908Z,24.84
2018-09-27T08:13:14.512Z,24.63
2018-09-27T08:15:44.054Z,26.94
2018-09-27T08:18:13.454Z,28.67
2018-09-27T08:20:43.043Z,30.35
2018-09-27T08:23:12.360Z,30.62
2018-09-27T08:25:41.699Z,32.02
2018-09-27T08:28:11.193Z,31.41
2018-09-27T08:30:41.235Z,31.86
2018-09-27T08:33:11.229Z,32.96
2018-09-27T08:35:40.908Z,34.45
2018-09-27T08:38:10.305Z,34.71
2018-09-27T08:40:39.779Z,33.87
2018-09-27T08:43:09.201Z,33.44
2018-09-27T08:45:38.709Z,34.33
2018-09-27T08:48:08.252Z,35.62
2018-09-27T08:50:37.685Z,35.38
2018-09-27T08:53:07.022Z,36.52
2018-09-27T08:55:36.957Z,36.74
2018-09-27T08:58:06.195Z,37.22
2018-09-27T09:00:35.565Z,37.83
2018-09-27T09:03:06.211Z,38.06
2018-09-27T09:05:35.683Z,37.58
2018-09-27T09:08:05.086Z,38.35
2018-09-27T09:10:34.524Z,36.76
2018-09-27T09:13:04.077Z,35.33
2018-09-27T09:15:33.590Z,37.10
2018-09-27T09:18:03.394Z,37.73
2018-09-27T09:20:32.916Z,37.90
2018-09-27T09:23:02.303Z,37.75
2018-09-27T09:25:31.837Z,38.82
2018-09-27T09:28:02.496Z,40.44
2018-09-27T09:30:32.048Z,39.79
2018-09-27T09:33:01.456Z,39.28
2018-09-27T09:35:31.673Z,38.78
2018-09-27T09:38:00.978Z,39.13
2018-09-27T09:40:30.594Z,39.13
2018-09-27T09:43:00.467Z,39.49
2018-09-27T09:45:30.022Z,39.20
2018-09-27T09:47:59.442Z,36.79
2018-09-27T09:50:28.820Z,34.33
2018-09-27T09:52:58.171Z,33.88
2018-09-27T09:55:27.584Z,36.38
2018-09-27T09:57:56.988Z,37.27
2018-09-27T10:00:26.456Z,35.17
2018-09-27T10:02:56.025Z,35.23
2018-09-27T10:05:25.420Z,35.77
2018-09-27T10:07:54.816Z,35.26
2018-09-27T10:10:24.193Z,35.61
2018-09-27T10:12:53.520Z,37.15
2018-09-27T10:15:22.858Z,37.60
2018-09-27T10:17:52.254Z,36.53
2018-09-27T10:20:21.641Z,37.57
2018-09-27T10:22:51.110Z,39.70
2018-09-27T10:25:21.198Z,39.25
2018-09-27T10:27:50.770Z,36.82
2018-09-27T10:30:20.155Z,36.21
2018-09-27T10:32:49.775Z,34.94
2018-09-27T10:35:19.076Z,34.61
2018-09-27T10:37:48.442Z,33.96
2018-09-27T10:40:17.809Z,35.36
2018-09-27T10:42:47.583Z,34.58
2018-09-27T10:45:16.879Z,31.74
2018-09-27T10:47:46.505Z,31.44
2018-09-27T10:50:15.857Z,30.42
2018-09-27T10:52:45.261Z,29.70
2018-09-27T10:55:14.661Z,29.09
2018-09-27T10:57:44.143Z,27.97
2018-09-27T11:00:19.279Z,27.38
2018-09-27T11:02:48.819Z,26.92
2018-09-27T11:05:19.764Z,26.91
2018-09-27T11:07:49.373Z,25.74
2018-09-27T11:10:18.732Z,25.63
2018-09-27T11:12:48.289Z,25.64
2018-09-27T11:15:17.764Z,25.34
2018-09-27T11:17:47.147Z,25.18
2018-09-27T11:20:16.607Z,25.33
2018-09-27T11:22:46.028Z,25.18
2018-09-27T11:25:15.613Z,25.17
2018-09-27T11:27:45.114Z,25.21
2018-09-27T11:30:19.858Z,25.00
2018-09-27T11:32:49.286Z,25.02
2018-09-27T11:35:18.835Z,25.49
2018-09-27T11:37:48.280Z,25.49
2018-09-27T11:40:17.802Z,25.27
2018-09-27T11:42:47.171Z,25.28
2018-09-27T11:45:16.528Z,25.20
2018-09-27T11:47:45.913Z,24.93
2018-09-27T11:50:15.561Z,25.22
2018-09-27T11:52:44.923Z,25.33
2018-09-27T11:55:14.417Z,24.99
2018-09-27T11:57:43.826Z,24.80
2018-09-27T12:00:14.375Z,25.31
2018-09-27T12:02:44.361Z,25.95
2018-09-27T12:05:14.077Z,26.79
2018-09-27T12:07:44.151Z,29.86
2018-09-27T12:10:13.359Z,32.33
2018-09-27T12:12:42.775Z,34.72
2018-09-27T12:15:12.445Z,35.66
2018-09-27T12:17:41.915Z,36.13
2018-09-27T12:20:11.619Z,37.80
2018-09-27T12:22:41.045Z,37.66
2018-09-27T12:25:10.479Z,38.66
2018-09-27T12:27:39.822Z,39.02
2018-09-27T12:30:09.211Z,39.53
2018-09-27T12:32:38.699Z,37.98
2018-09-27T12:35:08.169Z,38.55
2018-09-27T12:37:37.780Z,39.16
2018-09-27T12:40:07.271Z,39.63
2018-09-27T12:42:36.732Z,39.61
2018-09-27T12:45:06.172Z,39.63
2018-09-27T12:47:35.706Z,38.10
2018-09-27T12:50:05.135Z,38.96
2018-09-27T12:52:35.011Z,39.55
2018-09-27T12:55:04.339Z,37.87
2018-09-27T12:57:33.716Z,37.62
2018-09-27T13:00:03.335Z,38.21
2018-09-27T13:02:32.861Z,38.00
2018-09-27T13:05:02.122Z,37.31
2018-09-27T13:07:31.536Z,36.95
2018-09-27T13:10:01.120Z,38.29
2018-09-27T13:12:30.569Z,36.93
2018-09-27T13:14:59.980Z,36.20
2018-09-27T13:17:29.760Z,36.87
2018-09-27T13:19:59.158Z,37.80
2018-09-27T13:22:29.119Z,37.80
2018-09-27T13:24:58.791Z,38.35
2018-09-27T13:27:28.286Z,37.97
2018-09-27T13:29:57.668Z,38.44
2018-09-27T13:32:27.096Z,38.27
2018-09-27T13:34:56.456Z,37.58
2018-09-27T13:37:25.975Z,38.38
2018-09-27T13:39:55.302Z,37.86
2018-09-27T13:42:24.608Z,36.96
2018-09-27T13:44:54.868Z,36.93
2018-09-27T13:47:24.258Z,37.51
2018-09-27T13:49:53.584Z,37.64
2018-09-27T13:52:22.932Z,37.87
2018-09-27T13:54:52.271Z,37.14
2018-09-27T13:57:21.712Z,37.51
2018-09-27T13:59:51.100Z,37.34
2018-09-27T14:02:20.507Z,37.14
2018-09-27T14:04:49.938Z,36.88
2018-09-27T14:07:19.630Z,37.40
2018-09-27T14:09:49.014Z,37.47
2018-09-27T14:12:18.491Z,37.27
2018-09-27T14:14:47.921Z,36.38
2018-09-27T14:17:17.273Z,34.61
2018-09-27T14:19:46.688Z,33.42
2018-09-27T14:22:16.102Z,34.64
2018-09-27T14:24:45.460Z,34.18
2018-09-27T14:27:14.816Z,34.97
2018-09-27T14:29:44.533Z,34.42
2018-09-27T14:32:13.872Z,34.76
2018-09-27T14:34:43.188Z,35.21
2018-09-27T14:37:12.577Z,35.51
2018-09-27T14:39:41.914Z,34.43
2018-09-27T14:42:11.270Z,34.90
2018-09-27T14:44:40.748Z,35.13
2018-09-27T14:47:10.078Z,35.14
2018-09-27T14:49:39.481Z,34.98
2018-09-27T14:52:09.299Z,34.92
2018-09-27T14:54:38.692Z,33.65
2018-09-27T14:57:08.176Z,32.26
2018-09-27T14:59:37.755Z,31.32
2018-09-27T15:02:07.221Z,30.52
2018-09-27T15:04:36.547Z,29.84
2018-09-27T15:07:05.950Z,29.57
2018-09-27T15:09:35.406Z,29.14
2018-09-27T15:12:04.681Z,28.99
2018-09-27T15:14:34.389Z,28.03
2018-09-27T15:17:03.692Z,27.93
2018-09-27T15:19:33.037Z,27.54
2018-09-27T15:22:02.429Z,27.46
2018-09-27T15:24:31.730Z,27.58
2018-09-27T15:27:01.060Z,27.44
2018-09-27T15:29:30.347Z,26.44
2018-09-27T15:31:59.740Z,26.18
2018-09-27T15:34:29.063Z,26.50
2018-09-27T15:36:58.663Z,26.53
2018-09-27T15:39:27.959Z,26.60
2018-09-27T15:41:57.254Z,26.32
2018-09-27T15:44:26.906Z,26.28
2018-09-27T15:46:56.295Z,26.17
2018-09-27T15:49:25.649Z,26.43
2018-09-27T15:51:55.064Z,26.16
2018-09-27T15:54:24.386Z,25.99
2018-09-27T15:56:53.824Z,25.85
2018-09-27T15:59:23.502Z,25.96
2018-09-27T16:01:52.883Z,25.98
2018-09-27T16:04:22.369Z,25.97
2018-09-27T16:06:51.720Z,25.64
2018-09-27T16:09:21.114Z,25.79
2018-09-27T16:11:50.508Z,25.79
2018-09-27T16:14:19.986Z,25.86
2018-09-27T16:16:49.316Z,25.98
2018-09-27T16:19:18.755Z,25.61
2018-09-27T16:21:48.241Z,25.64
2018-09-27T16:24:17.561Z,25.51
2018-09-27T16:26:46.877Z,25.63
2018-09-27T16:29:16.336Z,25.72
2018-09-27T16:31:45.713Z,25.56
2018-09-27T16:34:15.134Z,25.38
2018-09-27T16:36:44.513Z,25.30
2018-09-27T16:39:13.836Z,25.50
2018-09-27T16:41:43.277Z,25.20
2018-09-27T16:44:12.776Z,25.25
2018-09-27T16:46:42.241Z,24.94
2018-09-27T16:49:11.562Z,24.97
2018-09-27T16:51:41.029Z,25.14
2018-09-27T16:54:10.351Z,24.93
2018-09-27T16:56:39.756Z,25.06
2018-09-27T16:59:09.236Z,24.92
2018-09-27T17:01:38.653Z,24.87
2018-09-27T17:04:08.238Z,24.86
2018-09-27T17:06:38.815Z,24.90
2018-09-27T17:09:09.305Z,24.86
2018-09-27T17:11:38.837Z,24.90
2018-09-27T17:14:08.317Z,24.83
2018-09-27T17:16:37.666Z,24.79
2018-09-27T17:19:07.692Z,24.70
2018-09-27T17:21:37.034Z,24.58
2018-09-27T17:24:06.335Z,24.63
2018-09-27T17:26:35.889Z,24.46
2018-09-27T17:29:05.225Z,24.47
2018-09-27T17:31:34.553Z,24.50
2018-09-27T17:34:04.016Z,24.35
2018-09-27T17:36:33.328Z,24.23
2018-09-27T17:39:02.621Z,23.99
2018-09-27T17:41:32.003Z,23.97
2018-09-27T17:44:01.340Z,24.08
2018-09-27T17:46:30.687Z,24.06
2018-09-27T17:49:00.513Z,23.79
2018-09-27T17:51:29.925Z,23.61
2018-09-27T17:53:59.252Z,23.51
2018-09-27T17:56:28.666Z,23.39
2018-09-27T17:58:58.059Z,23.34
2018-09-27T18:01:27.377Z,23.09
2018-09-27T18:03:56.789Z,23.22
2018-09-27T18:06:26.142Z,23.21
2018-09-27T18:08:55.600Z,23.16
2018-09-27T18:11:25.283Z,23.26
2018-09-27T18:13:54.824Z,23.20
2018-09-27T18:16:24.349Z,23.25
2018-09-27T18:18:53.742Z,23.27
2018-09-27T18:21:23.126Z,23.15
2018-09-27T18:23:52.487Z,23.07
2018-09-27T18:26:21.885Z,23.00
2018-09-27T18:28:51.316Z,22.99
2018-09-27T18:31:20.722Z,22.84
2018-09-27T18:33:50.558Z,22.78
2018-09-27T18:36:19.897Z,22.78
2018-09-27T18:38:49.249Z,22.71
2018-09-27T18:41:18.769Z,22.55
2018-09-27T18:43:48.228Z,22.60
2018-09-27T18:46:17.606Z,22.49
2018-09-27T18:48:47.090Z,22.43
2018-09-27T18:51:16.516Z,22.43
2018-09-27T18:53:45.916Z,22.30
2018-09-27T18:56:16.022Z,22.29
2018-09-27T18:58:45.424Z,22.19
2018-09-27T19:01:14.760Z,22.12
2018-09-27T19:03:44.169Z,22.06
2018-09-27T19:06:13.567Z,21.91
2018-09-27T19:08:43.117Z,21.91
2018-09-27T19:11:12.580Z,21.71
2018-09-27T19:13:42.422Z,21.78
2018-09-27T19:16:11.833Z,21.73
2018-09-27T19:18:41.375Z,21.44
2018-09-27T19:21:15.921Z,21.38
2018-09-27T19:23:47.425Z,21.31
2018-09-27T19:26:16.755Z,21.28
2018-09-27T19:28:47.079Z,21.29
2018-09-27T19:31:18.114Z,21.10
2018-09-27T19:33:47.499Z,21.11
2018-09-27T19:36:17.385Z,21.03
2018-09-27T19:38:47.112Z,20.85
2018-09-27T19:41:16.660Z,20.87
2018-09-27T19:43:46.357Z,20.85
2018-09-27T19:46:15.754Z,20.94
2018-09-27T19:48:45.192Z,20.88
2018-09-27T19:51:15.527Z,20.89
2018-09-27T19:53:45.026Z,20.95
2018-09-27T19:56:14.432Z,20.86
2018-09-27T19:58:44.714Z,20.73
2018-09-27T20:01:15.183Z,20.64
2018-09-27T20:03:44.855Z,20.62
2018-09-27T20:06:14.283Z,20.60
2018-09-27T20:08:44.636Z,20.61
2018-09-27T20:11:14.177Z,20.56
2018-09-27T20:13:43.552Z,20.46
2018-09-27T20:16:13.719Z,20.53
2018-09-27T20:18:45.149Z,20.54
2018-09-27T20:21:14.944Z,20.51
2018-09-27T20:23:45.232Z,20.10
2018-09-27T20:26:14.631Z,20.03
2018-09-27T20:28:45.740Z,20.23
2018-09-27T20:31:15.097Z,20.13
2018-09-27T20:33:44.486Z,20.02
2018-09-27T20:36:16.677Z,19.94
2018-09-27T20:38:46.834Z,20.12
2018-09-27T20:41:16.184Z,20.07
2018-09-27T20:43:45.649Z,19.95
2018-09-27T20:46:15.797Z,20.04
2018-09-27T20:48:45.254Z,20.01
2018-09-27T20:51:15.277Z,19.99
2018-09-27T20:53:45.059Z,20.10
2018-09-27T20:56:15.790Z,19.87
2018-09-27T20:58:45.946Z,19.92
2018-09-27T21:01:16.623Z,19.98
2018-09-27T21:03:45.993Z,19.91
2018-09-27T21:06:15.354Z,19.74
2018-09-27T21:08:45.483Z,19.71
2018-09-27T21:11:14.937Z,19.72
2018-09-27T21:13:45.954Z,19.58
2018-09-27T21:16:15.425Z,19.57
2018-09-27T21:18:45.692Z,19.63
2018-09-27T21:21:15.119Z,19.51
2018-09-27T21:23:44.435Z,19.44
2018-09-27T21:26:14.557Z,19.43
2018-09-27T21:28:43.926Z,19.42
2018-09-27T21:31:13.371Z,19.40
2018-09-27T21:33:42.845Z,19.40
2018-09-27T21:36:12.881Z,19.45
2018-09-27T21:38:42.233Z,19.32
2018-09-27T21:41:12.294Z,19.13
2018-09-27T21:43:41.708Z,19.24
2018-09-27T21:46:11.145Z,19.30
2018-09-27T21:48:40.598Z,19.17
2018-09-27T21:51:09.928Z,19.20
2018-09-27T21:53:39.379Z,18.98
2018-09-27T21:56:08.780Z,19.11
2018-09-27T21:58:38.377Z,18.87
2018-09-27T22:01:08.249Z,18.87
2018-09-27T22:03:37.962Z,18.72
2018-09-27T22:06:07.843Z,18.60
2018-09-27T22:08:37.490Z,18.70
2018-09-27T22:11:06.965Z,18.79
2018-09-27T22:13:36.413Z,18.81
2018-09-27T22:16:05.837Z,18.89
2018-09-27T22:18:35.424Z,18.83
2018-09-27T22:21:04.910Z,18.77
2018-09-27T22:23:34.239Z,18.83
2018-09-27T22:26:04.762Z,18.87
2018-09-27T22:28:34.101Z,18.87
2018-09-27T22:31:03.530Z,18.94
2018-09-27T22:33:32.949Z,19.00
2018-09-27T22:36:02.354Z,18.97
2018-09-27T22:38:31.885Z,19.00
2018-09-27T22:41:01.295Z,18.84
2018-09-27T22:43:30.747Z,18.85
2018-09-27T22:46:00.155Z,18.78
2018-09-27T22:48:29.744Z,18.80
2018-09-27T22:50:59.166Z,18.85
2018-09-27T22:53:28.572Z,18.77
2018-09-27T22:55:57.936Z,18.75
2018-09-27T22:58:27.290Z,18.64
2018-09-27T23:00:56.884Z,18.60
2018-09-27T23:03:27.336Z,18.45
2018-09-27T23:05:56.716Z,18.63
2018-09-27T23:08:26.014Z,18.75
2018-09-27T23:10:55.462Z,18.63
2018-09-27T23:13:24.828Z,18.72
2018-09-27T23:15:54.126Z,18.73
2018-09-27T23:18:23.475Z,18.89
2018-09-27T23:20:52.930Z,19.00
2018-09-27T23:23:22.259Z,19.06
2018-09-27T23:25:51.768Z,19.01
2018-09-27T23:28:21.142Z,18.85
2018-09-27T23:30:50.716Z,19.03
2018-09-27T23:33:20.427Z,18.91
2018-09-27T23:35:50.392Z,18.96
2018-09-27T23:38:19.866Z,19.10
2018-09-27T23:40:49.527Z,19.11
2018-09-27T23:43:18.855Z,19.12
2018-09-27T23:45:48.256Z,19.08
2018-09-27T23:48:17.674Z,19.16
2018-09-27T23:50:47.042Z,19.33
2018-09-27T23:53:16.502Z,19.16
2018-09-27T23:55:46.103Z,19.25
2018-09-27T23:58:15.528Z,19.06
